Time;durP1;ratioP1;P1;durP2;ratioP2;P2;SDS_P1;SDS_P2;PMS_P1;PMS_P2;Temp;Humidity;BMP_temperature;BMP_pressure;BME280_temperature;BME280_humidity;BME280_pressure;Samples;Min_cycle;Max_cycle;Signal;HPM_P1;HPM_P2
2023/02/02 00:01:35;;;;;;;22.40;3.93;;;5.30;99.90;;;;;;5033211;28;20231;-59
2023/02/02 00:04:03;;;;;;;25.47;4.50;;;5.30;99.90;;;;;;5034222;28;20478;-60
2023/02/02 00:06:32;;;;;;;30.00;4.33;;;5.40;99.90;;;;;;5051998;28;20465;-60
2023/02/02 00:09:02;;;;;;;29.40;4.83;;;5.30;99.90;;;;;;5037297;28;20485;-59
2023/02/02 00:11:30;;;;;;;18.93;3.60;;;5.30;99.90;;;;;;5033972;28;20458;-59
2023/02/02 00:13:59;;;;;;;26.57;4.23;;;5.30;99.90;;;;;;5034174;28;20962;-60
2023/02/02 00:16:41;;;;;;;21.60;3.97;;;5.30;99.90;;;;;;5033859;28;20477;-59
2023/02/02 00:19:12;;;;;;;23.33;4.03;;;5.20;99.90;;;;;;5034165;28;20465;-59
2023/02/02 00:21:40;;;;;;;25.27;4.30;;;5.30;99.90;;;;;;5033629;28;20470;-59
2023/02/02 00:24:09;;;;;;;25.37;4.60;;;5.30;99.90;;;;;;5033812;28;20470;-59
2023/02/02 00:26:38;;;;;;;20.83;4.10;;;5.20;99.90;;;;;;5033528;28;20323;-60
2023/02/02 00:29:08;;;;;;;29.93;4.80;;;5.30;99.90;;;;;;5033285;28;20820;-59
2023/02/02 00:31:38;;;;;;;21.73;3.87;;;5.30;99.90;;;;;;5031440;28;20807;-59
2023/02/02 00:34:06;;;;;;;22.10;3.70;;;5.30;99.90;;;;;;5032119;28;20481;-59
2023/02/02 00:36:34;;;;;;;20.60;4.50;;;5.30;99.90;;;;;;5039606;28;20458;-59
2023/02/02 00:39:02;;;;;;;24.67;4.03;;;5.30;99.90;;;;;;5029194;28;20989;-59
2023/02/02 00:41:30;;;;;;;16.63;3.37;;;5.30;99.90;;;;;;5051382;28;20469;-60
2023/02/02 00:46:45;;;;;;;18.80;3.87;;;5.30;99.90;;;;;;5053011;28;21067;-59
2023/02/02 00:49:13;;;;;;;25.27;3.53;;;5.30;99.90;;;;;;5046521;28;20493;-59
2023/02/02 00:51:41;;;;;;;23.17;3.80;;;5.30;99.90;;;;;;5033087;28;20458;-59
2023/02/02 00:54:09;;;;;;;19.73;2.93;;;5.30;99.90;;;;;;5033251;28;20466;-60
2023/02/02 00:56:37;;;;;;;16.33;3.10;;;5.30;99.90;;;;;;5032357;28;20477;-60
2023/02/02 00:59:05;;;;;;;24.50;3.33;;;5.20;99.90;;;;;;5032776;28;20230;-60
2023/02/02 01:01:33;;;;;;;27.03;3.57;;;5.20;99.90;;;;;;5032178;28;21013;-59
2023/02/02 01:04:03;;;;;;;16.80;3.00;;;5.20;99.90;;;;;;5033116;28;20955;-59
2023/02/02 01:06:31;;;;;;;24.77;3.63;;;5.20;99.90;;;;;;5050559;28;20464;-60
2023/02/02 01:08:59;;;;;;;27.13;4.23;;;5.20;99.90;;;;;;5032959;28;20487;-60
2023/02/02 01:11:27;;;;;;;21.07;3.87;;;5.20;99.90;;;;;;5031318;28;21000;-60
2023/02/02 01:13:55;;;;;;;22.87;3.80;;;5.20;99.90;;;;;;5030346;28;20475;-59
2023/02/02 01:16:23;;;;;;;30.57;4.23;;;5.20;99.90;;;;;;5032162;28;20524;-60
2023/02/02 01:18:52;;;;;;;29.23;4.30;;;5.10;99.90;;;;;;5032135;28;20894;-59
2023/02/02 01:21:21;;;;;;;23.57;3.77;;;5.10;99.90;;;;;;5031577;28;20463;-60
2023/02/02 01:23:50;;;;;;;27.10;4.00;;;5.00;99.90;;;;;;5032748;28;20221;-60
2023/02/02 01:26:18;;;;;;;19.73;4.13;;;5.10;99.90;;;;;;5031542;28;20475;-59
2023/02/02 01:28:47;;;;;;;23.50;4.03;;;5.10;99.90;;;;;;5031267;28;20877;-60
2023/02/02 01:31:16;;;;;;;26.17;4.33;;;5.10;99.90;;;;;;5032290;28;20471;-60
2023/02/02 01:33:46;;;;;;;18.33;3.80;;;5.10;99.90;;;;;;5032043;28;20493;-59
2023/02/02 01:36:16;;;;;;;18.23;3.07;;;5.10;99.90;;;;;;5043014;28;20458;-60
2023/02/02 01:38:46;;;;;;;20.63;3.27;;;5.10;99.90;;;;;;5032204;28;20595;-59
2023/02/02 01:41:17;;;;;;;18.13;3.53;;;5.10;99.90;;;;;;5031345;28;20467;-60
2023/02/02 01:43:55;;;;;;;17.77;3.13;;;5.10;99.90;;;;;;5032466;28;20554;-59
2023/02/02 01:46:26;;;;;;;23.93;3.57;;;5.10;99.90;;;;;;5031258;28;20463;-60
2023/02/02 01:48:59;;;;;;;26.70;4.10;;;5.10;99.90;;;;;;5031896;28;20706;-60
2023/02/02 01:51:32;;;;;;;23.87;3.83;;;5.10;99.90;;;;;;5032326;28;20225;-60
2023/02/02 01:54:02;;;;;;;22.43;3.43;;;5.10;99.90;;;;;;5032538;28;20219;-59
2023/02/02 01:56:40;;;;;;;20.17;3.67;;;5.20;99.90;;;;;;5035120;28;20469;-59
2023/02/02 01:59:09;;;;;;;18.33;3.40;;;5.20;99.90;;;;;;5040811;28;20466;-60
2023/02/02 02:01:37;;;;;;;26.33;3.73;;;5.20;99.90;;;;;;5034130;28;20242;-60
2023/02/02 02:04:05;;;;;;;25.60;3.80;;;5.20;99.90;;;;;;5036847;28;20458;-59
2023/02/02 02:06:34;;;;;;;24.87;4.20;;;5.20;99.90;;;;;;5040449;28;20220;-62
2023/02/02 02:09:05;;;;;;;23.97;4.20;;;5.30;99.90;;;;;;5034012;28;20466;-60
2023/02/02 02:11:35;;;;;;;24.37;3.50;;;5.30;99.90;;;;;;5036184;28;20459;-60
2023/02/02 02:17:01;;;;;;;14.83;3.20;;;5.30;99.90;;;;;;5033715;28;20227;-59
2023/02/02 02:26:33;;;;;;;26.33;3.57;;;5.30;99.90;;;;;;5033563;28;20759;-60
2023/02/02 02:29:31;;;;;;;19.67;3.00;;;5.30;99.90;;;;;;5034300;28;20583;-59
2023/02/02 02:32:17;;;;;;;22.17;3.33;;;5.30;99.90;;;;;;5034202;28;20223;-59
2023/02/02 02:34:53;;;;;;;26.20;3.57;;;5.30;99.90;;;;;;5033864;28;20541;-60
2023/02/02 02:37:32;;;;;;;18.60;3.93;;;5.30;99.90;;;;;;5032089;28;20259;-60
2023/02/02 02:40:06;;;;;;;22.90;3.70;;;5.30;99.90;;;;;;5031362;28;20462;-60
2023/02/02 02:42:39;;;;;;;29.50;4.20;;;5.30;99.90;;;;;;5033125;28;20603;-60
2023/02/02 02:45:10;;;;;;;19.43;3.27;;;5.30;99.90;;;;;;5033208;28;20709;-60
2023/02/02 02:47:41;;;;;;;26.77;3.27;;;5.30;99.90;;;;;;5032925;28;20228;-60
2023/02/02 02:50:11;;;;;;;21.53;3.67;;;5.40;99.90;;;;;;5031755;28;20479;-61
2023/02/02 02:52:41;;;;;;;22.20;3.93;;;5.40;99.90;;;;;;5045064;28;20311;-61
2023/02/02 02:55:10;;;;;;;25.67;3.50;;;5.40;99.90;;;;;;5025596;28;20290;-59
2023/02/02 02:57:53;;;;;;;20.67;3.03;;;5.40;99.90;;;;;;5038395;28;20227;-59
2023/02/02 03:00:46;;;;;;;27.87;3.73;;;5.40;99.90;;;;;;5028301;28;20982;-59
2023/02/02 03:03:30;;;;;;;20.47;3.63;;;5.40;99.90;;;;;;5033174;28;20247;-59
2023/02/02 03:06:08;;;;;;;16.73;3.70;;;5.40;99.90;;;;;;5032455;28;20467;-60
2023/02/02 03:08:40;;;;;;;16.73;3.67;;;5.40;99.90;;;;;;5027377;28;20822;-59
2023/02/02 03:11:12;;;;;;;16.80;3.17;;;5.40;99.90;;;;;;5034336;28;20827;-59
2023/02/02 03:13:42;;;;;;;22.50;3.47;;;5.40;99.90;;;;;;5034654;28;20230;-59
2023/02/02 03:16:11;;;;;;;22.80;4.13;;;5.40;99.90;;;;;;5031012;28;20699;-60
2023/02/02 03:18:40;;;;;;;20.77;4.37;;;5.40;99.90;;;;;;5033753;28;20229;-59
2023/02/02 03:21:11;;;;;;;21.87;3.80;;;5.30;99.90;;;;;;5032628;28;20554;-60
2023/02/02 03:23:39;;;;;;;21.63;3.63;;;5.30;99.90;;;;;;5033435;28;20818;-60
2023/02/02 03:26:07;;;;;;;26.77;4.50;;;5.40;99.90;;;;;;5033762;28;21028;-60
2023/02/02 03:28:36;;;;;;;29.90;3.10;;;5.30;99.90;;;;;;5033869;28;21004;-59
2023/02/02 03:31:04;;;;;;;25.07;3.83;;;5.30;99.90;;;;;;5033025;28;20239;-59
2023/02/02 03:33:35;;;;;;;25.97;3.70;;;5.30;99.90;;;;;;5033394;28;20223;-59
2023/02/02 03:36:05;;;;;;;21.07;3.10;;;5.30;99.90;;;;;;5033271;28;20468;-59
2023/02/02 03:38:33;;;;;;;17.40;3.03;;;5.30;99.90;;;;;;5034877;28;20493;-59
2023/02/02 03:41:01;;;;;;;26.37;4.00;;;5.40;99.90;;;;;;5033572;28;20508;-59
2023/02/02 03:43:29;;;;;;;22.30;3.90;;;5.40;99.90;;;;;;5037533;28;20820;-60
2023/02/02 03:45:58;;;;;;;29.03;4.10;;;5.40;99.90;;;;;;5042487;28;20238;-60
2023/02/02 03:48:26;;;;;;;23.60;3.47;;;5.40;99.90;;;;;;5033379;28;20463;-60
2023/02/02 03:50:54;;;;;;;26.53;4.73;;;5.50;99.90;;;;;;5033406;28;20482;-60
2023/02/02 03:53:24;;;;;;;26.43;4.40;;;5.50;99.90;;;;;;5036569;28;20837;-60
2023/02/02 03:55:52;;;;;;;27.87;5.17;;;5.50;99.90;;;;;;5033032;28;20834;-60
2023/02/02 03:58:21;;;;;;;23.67;3.67;;;5.50;99.90;;;;;;5036671;28;20469;-59
2023/02/02 04:00:49;;;;;;;19.03;3.40;;;5.50;99.90;;;;;;5032843;28;20242;-59
2023/02/02 04:03:17;;;;;;;30.30;4.90;;;5.50;99.90;;;;;;5037332;28;20236;-61
2023/02/02 04:05:49;;;;;;;22.93;3.77;;;5.50;99.90;;;;;;5035610;28;20278;-61
2023/02/02 04:08:17;;;;;;;25.00;4.03;;;5.50;99.90;;;;;;5037920;28;20485;-59
2023/02/02 04:10:46;;;;;;;27.07;4.03;;;5.50;99.90;;;;;;5032715;28;20239;-59
2023/02/02 04:13:15;;;;;;;25.83;3.97;;;5.50;99.90;;;;;;5036563;28;20242;-59
2023/02/02 04:15:42;;;;;;;24.67;3.97;;;5.50;99.90;;;;;;5036263;28;20471;-59
2023/02/02 04:18:11;;;;;;;24.50;3.80;;;5.50;99.90;;;;;;5028374;28;20482;-60
2023/02/02 04:20:39;;;;;;;25.80;3.90;;;5.50;99.90;;;;;;5043909;28;20486;-60
2023/02/02 04:23:07;;;;;;;23.87;4.03;;;5.50;99.90;;;;;;5033001;28;20847;-59
2023/02/02 04:25:35;;;;;;;26.03;4.10;;;5.50;99.90;;;;;;5035703;28;20220;-60
2023/02/02 04:28:05;;;;;;;22.70;3.43;;;5.50;99.90;;;;;;5032468;28;20553;-60
2023/02/02 04:30:33;;;;;;;24.03;3.27;;;5.50;99.90;;;;;;5032908;28;20688;-60
2023/02/02 04:33:01;;;;;;;23.00;4.27;;;5.50;99.90;;;;;;5035662;28;20535;-59
2023/02/02 04:35:29;;;;;;;26.47;3.83;;;5.40;99.90;;;;;;5032632;28;20466;-60
2023/02/02 04:37:57;;;;;;;18.37;4.03;;;5.40;99.90;;;;;;5035030;28;20254;-60
2023/02/02 04:40:25;;;;;;;26.90;4.20;;;5.40;99.90;;;;;;5027114;28;20582;-60
2023/02/02 04:42:53;;;;;;;24.13;3.90;;;5.50;99.90;;;;;;5029267;28;20784;-60
2023/02/02 04:45:23;;;;;;;25.10;3.90;;;5.50;99.90;;;;;;5035912;28;20466;-61
2023/02/02 04:47:51;;;;;;;25.90;4.00;;;5.40;99.90;;;;;;5031091;28;20468;-59
2023/02/02 04:50:19;;;;;;;19.27;3.97;;;5.40;99.90;;;;;;5027395;28;20839;-59
2023/02/02 04:52:47;;;;;;;25.70;3.77;;;5.40;99.90;;;;;;5030337;28;20233;-59
2023/02/02 04:55:16;;;;;;;17.03;4.07;;;5.40;99.90;;;;;;5032076;28;20231;-60
2023/02/02 04:57:44;;;;;;;23.60;3.80;;;5.40;99.90;;;;;;5032199;28;21603;-60
2023/02/02 05:00:13;;;;;;;28.33;3.80;;;5.40;99.90;;;;;;5031312;28;20464;-60
2023/02/02 05:02:42;;;;;;;27.87;4.17;;;5.40;99.90;;;;;;5031665;28;20466;-60
2023/02/02 05:05:13;;;;;;;24.07;3.93;;;5.40;99.90;;;;;;5038266;28;20965;-59
2023/02/02 05:07:41;;;;;;;20.90;3.60;;;5.40;99.90;;;;;;5045190;28;20465;-59
2023/02/02 05:10:10;;;;;;;23.47;4.17;;;5.40;99.90;;;;;;5030900;28;20216;-60
2023/02/02 05:12:38;;;;;;;30.50;4.73;;;5.40;99.90;;;;;;5031280;28;20231;-59
2023/02/02 05:15:07;;;;;;;27.13;4.10;;;5.50;99.90;;;;;;5032142;28;21061;-60
2023/02/02 05:17:35;;;;;;;28.57;4.13;;;5.50;99.90;;;;;;5028068;28;20812;-60
2023/02/02 05:20:05;;;;;;;29.47;4.27;;;5.50;99.90;;;;;;5031682;28;21005;-59
2023/02/02 05:22:34;;;;;;;21.60;3.70;;;5.40;99.90;;;;;;5031146;28;20459;-59
2023/02/02 05:25:02;;;;;;;19.37;3.83;;;5.40;99.90;;;;;;5031586;28;20484;-60
2023/02/02 05:27:30;;;;;;;18.63;3.47;;;5.40;99.90;;;;;;5031492;28;20462;-59
2023/02/02 05:29:58;;;;;;;19.10;3.63;;;5.40;99.90;;;;;;5035028;28;20463;-60
2023/02/02 05:32:27;;;;;;;28.03;3.67;;;5.40;99.90;;;;;;5031829;28;20574;-59
2023/02/02 05:34:55;;;;;;;26.77;4.40;;;5.40;99.90;;;;;;5034650;28;20990;-59
2023/02/02 05:37:25;;;;;;;23.10;3.43;;;5.40;99.90;;;;;;5039428;28;20234;-59
2023/02/02 05:39:53;;;;;;;27.67;4.23;;;5.40;99.90;;;;;;5031777;28;20466;-59
2023/02/02 05:42:21;;;;;;;22.23;3.87;;;5.40;99.90;;;;;;5031835;28;20974;-60
2023/02/02 05:44:49;;;;;;;21.07;3.73;;;5.30;99.90;;;;;;5031570;28;20461;-59
2023/02/02 05:47:17;;;;;;;22.97;3.90;;;5.30;99.90;;;;;;5031795;28;20460;-59
2023/02/02 05:49:45;;;;;;;20.77;3.37;;;5.30;99.90;;;;;;5033606;28;20951;-59
2023/02/02 05:52:17;;;;;;;18.87;3.73;;;5.30;99.90;;;;;;5030666;28;20501;-60
2023/02/02 05:54:47;;;;;;;24.70;4.00;;;5.30;99.90;;;;;;5019286;28;20472;-60
2023/02/02 05:57:15;;;;;;;20.00;3.70;;;5.30;99.90;;;;;;5041304;28;20469;-59
2023/02/02 05:59:43;;;;;;;21.03;3.60;;;5.30;99.90;;;;;;5052380;28;20466;-59
2023/02/02 06:02:11;;;;;;;32.90;3.50;;;5.30;99.90;;;;;;5038367;28;20482;-60
2023/02/02 06:04:39;;;;;;;24.77;4.43;;;5.30;99.90;;;;;;5034631;28;20470;-60
2023/02/02 06:07:07;;;;;;;19.57;3.13;;;5.30;99.90;;;;;;5037903;28;20470;-59
2023/02/02 06:09:35;;;;;;;25.30;3.77;;;5.30;99.90;;;;;;5032865;28;20460;-59
2023/02/02 06:12:07;;;;;;;26.47;4.40;;;5.30;99.90;;;;;;5032304;28;20526;-60
2023/02/02 06:14:35;;;;;;;18.83;3.80;;;5.30;99.90;;;;;;5032083;28;20560;-59
2023/02/02 06:17:03;;;;;;;21.80;3.27;;;5.20;99.90;;;;;;5022387;28;20471;-60
2023/02/02 06:19:31;;;;;;;22.63;3.03;;;5.20;99.90;;;;;;5035350;28;20466;-60
2023/02/02 06:21:59;;;;;;;21.33;3.53;;;5.20;99.90;;;;;;5036740;28;20228;-60
2023/02/02 06:24:27;;;;;;;14.50;3.20;;;5.20;99.90;;;;;;5028442;28;20474;-59
2023/02/02 06:26:55;;;;;;;22.37;3.90;;;5.20;99.90;;;;;;5029781;28;20966;-59
2023/02/02 06:29:25;;;;;;;31.77;3.97;;;5.10;99.90;;;;;;5027015;28;20523;-59
2023/02/02 06:31:53;;;;;;;19.07;3.27;;;5.10;99.90;;;;;;5032687;28;20484;-60
2023/02/02 06:34:21;;;;;;;21.57;3.77;;;5.20;99.90;;;;;;5042543;28;20970;-61
2023/02/02 06:36:49;;;;;;;26.00;4.70;;;5.10;99.90;;;;;;5041865;28;20490;-59
2023/02/02 06:39:17;;;;;;;23.23;3.73;;;5.20;99.90;;;;;;5031349;28;20459;-60
2023/02/02 06:41:47;;;;;;;24.93;3.97;;;5.10;99.90;;;;;;5037067;28;20985;-59
2023/02/02 06:44:15;;;;;;;23.17;3.77;;;5.20;99.90;;;;;;5040368;28;20479;-60
2023/02/02 06:46:45;;;;;;;19.80;3.60;;;5.20;99.90;;;;;;5038491;28;20473;-59
2023/02/02 06:49:13;;;;;;;23.23;3.60;;;5.20;99.90;;;;;;5037728;28;20458;-60
2023/02/02 06:51:41;;;;;;;23.70;3.83;;;5.20;99.90;;;;;;5035227;28;20471;-60
2023/02/02 06:54:09;;;;;;;16.83;3.30;;;5.20;99.90;;;;;;5035696;28;20454;-59
2023/02/02 06:56:37;;;;;;;24.83;3.50;;;5.20;99.90;;;;;;5055018;28;20531;-59
2023/02/02 06:59:05;;;;;;;30.00;4.00;;;5.20;99.90;;;;;;5051929;28;21010;-60
2023/02/02 07:01:34;;;;;;;28.57;4.37;;;5.20;99.90;;;;;;5050776;28;20863;-59
2023/02/02 07:04:03;;;;;;;21.33;3.57;;;5.10;99.90;;;;;;5038590;28;20859;-60
2023/02/02 07:06:32;;;;;;;26.93;3.47;;;5.10;99.90;;;;;;5050772;28;20979;-60
2023/02/02 07:09:00;;;;;;;19.80;3.07;;;5.10;99.90;;;;;;5050386;28;20474;-60
2023/02/02 07:11:31;;;;;;;18.67;3.73;;;5.10;99.90;;;;;;5029684;28;20466;-60
2023/02/02 07:14:05;;;;;;;22.43;4.27;;;5.10;99.90;;;;;;5034943;28;20523;-60
2023/02/02 07:16:33;;;;;;;19.53;3.67;;;5.10;99.90;;;;;;5034170;28;20463;-59
2023/02/02 07:19:03;;;;;;;19.43;3.60;;;5.00;99.90;;;;;;5038595;28;20500;-59
2023/02/02 07:21:34;;;;;;;22.50;3.90;;;5.00;99.90;;;;;;5049781;28;20470;-60
2023/02/02 07:24:03;;;;;;;19.63;3.23;;;5.00;99.90;;;;;;5055052;28;20469;-60
2023/02/02 07:26:31;;;;;;;20.20;3.40;;;5.00;99.90;;;;;;5047136;28;20965;-60
2023/02/02 07:28:59;;;;;;;22.73;3.90;;;4.90;99.90;;;;;;5042926;28;20553;-59
2023/02/02 07:31:27;;;;;;;21.07;3.17;;;4.90;99.90;;;;;;5046870;28;20815;-60
2023/02/02 07:33:56;;;;;;;19.83;3.17;;;4.90;99.90;;;;;;5034812;28;20270;-60
2023/02/02 07:36:26;;;;;;;17.07;3.43;;;4.90;99.90;;;;;;5043045;28;20459;-59
2023/02/02 07:38:56;;;;;;;19.57;3.23;;;4.90;99.90;;;;;;5052761;28;20472;-60
2023/02/02 07:41:24;;;;;;;22.43;3.87;;;4.80;99.90;;;;;;5054778;28;20480;-60
2023/02/02 07:43:52;;;;;;;21.80;3.60;;;4.80;99.90;;;;;;5054470;28;20483;-59
2023/02/02 07:46:21;;;;;;;21.53;3.10;;;4.80;99.90;;;;;;5035168;28;20486;-59
2023/02/02 07:48:50;;;;;;;28.17;3.27;;;4.80;99.90;;;;;;5022399;28;20473;-59
2023/02/02 07:51:18;;;;;;;26.73;4.47;;;4.90;99.90;;;;;;5034463;28;20465;-59
2023/02/02 07:53:50;;;;;;;29.53;4.03;;;4.90;99.90;;;;;;5034212;28;20499;-59
2023/02/02 07:56:19;;;;;;;24.30;3.80;;;4.90;99.90;;;;;;5033985;28;20464;-60
2023/02/02 07:58:48;;;;;;;23.00;3.73;;;4.90;99.90;;;;;;5033419;28;20481;-59
2023/02/02 08:01:17;;;;;;;21.40;3.63;;;5.00;99.90;;;;;;5033597;28;21033;-60
2023/02/02 08:03:45;;;;;;;21.70;3.47;;;5.00;99.90;;;;;;5034172;28;20466;-59
2023/02/02 08:06:16;;;;;;;19.90;3.63;;;5.00;99.90;;;;;;5042573;28;20584;-58
2023/02/02 08:08:44;;;;;;;19.43;3.53;;;5.00;99.90;;;;;;5042705;28;20971;-58
2023/02/02 08:11:15;;;;;;;22.93;3.20;;;5.00;99.90;;;;;;5029996;28;20468;-58
2023/02/02 08:13:44;;;;;;;19.87;3.17;;;5.10;99.90;;;;;;5042592;28;20486;-57
2023/02/02 08:16:12;;;;;;;21.87;3.77;;;5.10;99.90;;;;;;5014072;28;20479;-58
2023/02/02 08:18:41;;;;;;;27.30;4.00;;;5.20;99.90;;;;;;5013993;28;20963;-57
2023/02/02 08:21:10;;;;;;;20.80;3.50;;;5.20;99.90;;;;;;5014539;28;20879;-58
2023/02/02 08:23:40;;;;;;;19.87;3.63;;;5.20;99.90;;;;;;5013901;28;20459;-57
2023/02/02 08:26:10;;;;;;;17.63;3.37;;;5.20;99.90;;;;;;5050325;28;20466;-59
2023/02/02 08:28:41;;;;;;;20.53;4.37;;;5.40;99.90;;;;;;5053373;28;20471;-60
2023/02/02 08:31:14;;;;;;;26.77;3.43;;;5.50;99.90;;;;;;5048067;28;20486;-60
2023/02/02 08:33:42;;;;;;;24.70;3.80;;;5.50;99.90;;;;;;5033535;28;20997;-59
2023/02/02 08:36:12;;;;;;;25.30;3.40;;;5.60;99.90;;;;;;5045021;28;20464;-60
2023/02/02 08:38:41;;;;;;;24.87;3.73;;;5.60;99.90;;;;;;5049320;28;20231;-60
2023/02/02 08:41:11;;;;;;;24.50;3.60;;;5.60;99.90;;;;;;5035184;28;20464;-59
2023/02/02 08:43:41;;;;;;;22.33;3.70;;;5.50;99.90;;;;;;5047052;28;20501;-59
2023/02/02 08:46:11;;;;;;;22.97;3.20;;;5.50;99.90;;;;;;5025521;28;20224;-60
2023/02/02 08:48:41;;;;;;;26.70;3.60;;;5.50;99.90;;;;;;5033175;28;20466;-60
2023/02/02 08:51:11;;;;;;;22.43;3.17;;;5.60;99.90;;;;;;5033666;28;20818;-59
2023/02/02 08:53:39;;;;;;;19.90;3.17;;;5.60;99.90;;;;;;5033352;28;20832;-60
2023/02/02 08:56:11;;;;;;;26.23;3.43;;;5.70;99.90;;;;;;5033515;28;20730;-59
2023/02/02 08:58:45;;;;;;;28.37;5.03;;;5.80;99.90;;;;;;5033346;28;20688;-60
2023/02/02 09:01:15;;;;;;;22.63;3.83;;;5.90;99.90;;;;;;5032903;28;20258;-59
2023/02/02 09:03:44;;;;;;;21.63;3.50;;;6.10;99.90;;;;;;5032789;28;20224;-59
2023/02/02 09:06:14;;;;;;;27.80;4.60;;;6.10;99.90;;;;;;5040958;28;20217;-60
2023/02/02 09:08:43;;;;;;;29.80;4.23;;;6.20;99.90;;;;;;5048757;28;20502;-60
2023/02/02 09:11:13;;;;;;;17.70;3.57;;;6.20;99.90;;;;;;5017119;28;20764;-60
2023/02/02 09:13:45;;;;;;;28.93;4.67;;;6.20;99.90;;;;;;5016749;28;20232;-59
2023/02/02 09:16:16;;;;;;;21.17;4.10;;;6.30;99.90;;;;;;5032454;28;20327;-59
2023/02/02 09:18:45;;;;;;;16.90;3.27;;;6.40;99.90;;;;;;5049185;28;20687;-61
2023/02/02 09:21:14;;;;;;;27.97;4.03;;;6.50;99.90;;;;;;5052832;28;20590;-59
2023/02/02 09:23:44;;;;;;;18.13;3.73;;;6.60;99.90;;;;;;5052568;28;20227;-59
2023/02/02 09:26:14;;;;;;;27.20;4.23;;;6.60;99.90;;;;;;5052656;28;20216;-60
2023/02/02 09:28:46;;;;;;;30.27;4.13;;;6.80;99.90;;;;;;5038165;28;20250;-60
2023/02/02 09:31:14;;;;;;;24.93;3.60;;;6.90;99.90;;;;;;5032342;28;20228;-58
2023/02/02 09:33:42;;;;;;;23.53;3.57;;;7.10;99.90;;;;;;5032373;28;20260;-58
2023/02/02 09:36:13;;;;;;;20.77;2.87;;;7.10;99.90;;;;;;5040664;28;20225;-58
2023/02/02 09:38:43;;;;;;;17.10;2.90;;;7.20;99.90;;;;;;5048405;28;20232;-57
2023/02/02 09:41:54;;;;;;;20.40;3.23;;;7.30;99.90;;;;;;5047991;28;20703;-57
2023/02/02 09:44:34;;;;;;;24.47;3.87;;;7.30;99.90;;;;;;4971655;28;20230;-58
2023/02/02 09:47:14;;;;;;;24.37;3.57;;;7.20;99.90;;;;;;4972870;28;20338;-57
2023/02/02 09:49:52;;;;;;;21.03;2.73;;;7.10;99.90;;;;;;5009624;28;20220;-57
2023/02/02 09:52:25;;;;;;;15.80;3.10;;;7.20;99.90;;;;;;5032809;28;20232;-58
2023/02/02 09:55:00;;;;;;;18.87;3.30;;;7.40;99.90;;;;;;5032752;28;20240;-57
2023/02/02 09:57:35;;;;;;;18.27;2.83;;;7.50;99.90;;;;;;5032195;28;20591;-57
2023/02/02 10:00:07;;;;;;;15.93;2.37;;;7.60;99.90;;;;;;5032644;28;20684;-58
2023/02/02 10:02:43;;;;;;;14.13;2.40;;;7.60;99.90;;;;;;5031572;28;20236;-57
2023/02/02 10:05:16;;;;;;;17.07;3.20;;;7.70;99.90;;;;;;5024684;28;20239;-57
2023/02/02 10:07:48;;;;;;;13.87;2.60;;;7.70;99.90;;;;;;5051934;28;20260;-58
2023/02/02 10:10:20;;;;;;;12.33;2.43;;;7.70;99.90;;;;;;5038775;28;20228;-58
2023/02/02 10:12:56;;;;;;;17.50;2.80;;;7.70;99.90;;;;;;5032298;28;20651;-57
2023/02/02 10:15:37;;;;;;;11.97;2.17;;;7.90;99.90;;;;;;5032066;28;20228;-57
2023/02/02 10:18:13;;;;;;;15.13;2.80;;;8.00;99.90;;;;;;5014017;28;20758;-57
2023/02/02 10:20:46;;;;;;;11.47;3.00;;;8.10;99.90;;;;;;5016482;28;20711;-58
2023/02/02 10:23:22;;;;;;;16.07;2.27;;;8.00;99.90;;;;;;5016639;28;20320;-58
2023/02/02 10:25:57;;;;;;;16.20;3.47;;;7.80;99.90;;;;;;5028649;28;20220;-57
2023/02/02 10:28:41;;;;;;;15.70;2.27;;;8.00;99.90;;;;;;5055682;28;20226;-58
2023/02/02 10:31:20;;;;;;;15.70;2.60;;;8.20;99.90;;;;;;5051052;28;20649;-57
2023/02/02 10:34:01;;;;;;;14.50;2.63;;;8.10;99.90;;;;;;5033489;28;20307;-58
2023/02/02 10:36:38;;;;;;;14.63;2.30;;;8.10;99.90;;;;;;5039234;28;20232;-57
2023/02/02 10:39:18;;;;;;;12.10;1.93;;;7.90;99.90;;;;;;5040682;28;20626;-58
2023/02/02 10:41:56;;;;;;;13.17;1.67;;;7.80;99.90;;;;;;5035596;28;20228;-57
2023/02/02 10:44:34;;;;;;;10.70;2.20;;;7.70;99.90;;;;;;5034540;28;20688;-57
2023/02/02 10:47:08;;;;;;;8.57;1.33;;;7.70;99.90;;;;;;5037834;28;20227;-57
2023/02/02 10:49:38;;;;;;;10.03;1.80;;;7.70;99.90;;;;;;5055543;28;20230;-57
2023/02/02 10:52:16;;;;;;;7.57;2.43;;;7.80;99.90;;;;;;5055822;28;20758;-58
2023/02/02 10:54:52;;;;;;;9.80;2.00;;;7.80;99.90;;;;;;5055463;28;20247;-58
2023/02/02 10:57:46;;;;;;;11.87;2.30;;;7.70;99.90;;;;;;5055233;28;20223;-58
2023/02/02 11:00:27;;;;;;;9.63;1.93;;;7.60;99.90;;;;;;5023241;28;20209;-58
2023/02/02 11:03:03;;;;;;;8.60;1.67;;;7.70;99.90;;;;;;5027289;28;20270;-57
2023/02/02 11:08:19;;;;;;;9.87;1.43;;;8.40;99.90;;;;;;5036802;28;20224;-57
2023/02/02 11:10:51;;;;;;;6.70;1.40;;;8.50;99.90;;;;;;5033903;28;20233;-58
2023/02/02 11:13:28;;;;;;;5.17;1.30;;;8.60;99.90;;;;;;5037793;28;20219;-57
2023/02/02 11:16:18;;;;;;;8.07;1.37;;;8.50;99.90;;;;;;5033647;28;20232;-58
2023/02/02 11:18:48;;;;;;;6.77;1.30;;;8.20;99.90;;;;;;5033936;28;20237;-57
2023/02/02 11:21:19;;;;;;;7.77;1.43;;;7.90;99.90;;;;;;5043189;28;20228;-57
2023/02/02 11:23:55;;;;;;;6.03;1.20;;;7.80;99.90;;;;;;5032712;28;20232;-58
2023/02/02 11:26:24;;;;;;;6.53;1.27;;;7.60;99.90;;;;;;5039250;28;20227;-58
2023/02/02 11:28:54;;;;;;;5.30;1.10;;;7.50;99.90;;;;;;5034001;28;20295;-57
2023/02/02 11:31:37;;;;;;;8.17;1.13;;;7.40;99.90;;;;;;5038911;28;20734;-58
2023/02/02 11:34:16;;;;;;;6.20;1.20;;;7.30;99.90;;;;;;5032871;28;20623;-58
2023/02/02 11:37:02;;;;;;;5.90;1.40;;;7.20;99.90;;;;;;5019613;28;20228;-57
2023/02/02 11:39:30;;;;;;;8.40;1.30;;;7.20;99.90;;;;;;5036643;28;20244;-57
2023/02/02 11:42:04;;;;;;;5.97;1.07;;;7.30;99.90;;;;;;5043834;28;20247;-58
2023/02/02 11:44:34;;;;;;;5.83;1.30;;;7.50;99.90;;;;;;5049531;28;20303;-58
2023/02/02 11:47:05;;;;;;;2.83;0.80;;;7.90;99.90;;;;;;5041619;28;20236;-57
2023/02/02 11:49:41;;;;;;;4.73;0.90;;;8.10;99.90;;;;;;5034625;28;20224;-57
2023/02/02 11:52:17;;;;;;;6.53;1.00;;;8.10;99.90;;;;;;5039873;28;20243;-57
2023/02/02 11:54:48;;;;;;;5.97;1.13;;;8.00;99.90;;;;;;5034146;28;20239;-57
2023/02/02 11:57:19;;;;;;;6.47;1.30;;;8.10;99.90;;;;;;5019774;28;20225;-58
2023/02/02 11:59:49;;;;;;;7.83;1.50;;;8.20;99.90;;;;;;5014386;28;20303;-58
2023/02/02 12:02:27;;;;;;;6.40;1.10;;;8.20;99.90;;;;;;5027705;28;20766;-57
2023/02/02 12:05:32;;;;;;;12.00;1.67;;;8.20;99.90;;;;;;5036710;28;20230;-57
2023/02/02 12:08:00;;;;;;;5.77;1.07;;;8.10;99.90;;;;;;5044839;28;20219;-58
2023/02/02 12:10:35;;;;;;;7.13;1.40;;;8.10;99.90;;;;;;5041117;28;20221;-57
2023/02/02 12:13:09;;;;;;;7.63;1.47;;;8.10;99.90;;;;;;5033885;28;20232;-58
2023/02/02 12:15:51;;;;;;;9.20;1.50;;;8.10;99.90;;;;;;5035997;28;20235;-57
2023/02/02 12:18:33;;;;;;;6.03;1.40;;;8.10;99.90;;;;;;5040343;28;20306;-58
2023/02/02 12:21:05;;;;;;;10.03;1.50;;;8.00;99.90;;;;;;5054182;28;20710;-57
2023/02/02 12:23:46;;;;;;;7.27;1.00;;;7.90;99.90;;;;;;5053902;28;20583;-57
2023/02/02 12:26:21;;;;;;;8.00;1.20;;;7.80;99.90;;;;;;5019309;28;20228;-58
2023/02/02 12:29:10;;;;;;;8.47;1.10;;;7.80;99.90;;;;;;5013900;28;20225;-57
2023/02/02 12:31:47;;;;;;;5.60;1.23;;;7.70;99.90;;;;;;5030429;28;20224;-58
2023/02/02 12:34:23;;;;;;;7.67;1.37;;;7.70;99.90;;;;;;5033967;28;20227;-57
2023/02/02 12:37:02;;;;;;;11.23;1.53;;;7.80;99.90;;;;;;5040585;28;20710;-57
2023/02/02 12:39:43;;;;;;;6.83;1.17;;;7.90;99.90;;;;;;5035059;28;20687;-58
2023/02/02 12:42:37;;;;;;;9.40;1.63;;;8.00;99.90;;;;;;5013595;28;20229;-57
2023/02/02 12:45:23;;;;;;;7.63;1.60;;;8.20;99.90;;;;;;5014033;28;20740;-57
2023/02/02 12:48:01;;;;;;;4.87;0.97;;;8.20;99.90;;;;;;5013650;28;20217;-58
2023/02/02 12:50:34;;;;;;;8.57;1.40;;;8.20;99.90;;;;;;5013735;28;20232;-57
2023/02/02 12:53:20;;;;;;;10.03;1.40;;;8.30;99.90;;;;;;5020630;28;20224;-57
2023/02/02 12:55:56;;;;;;;8.30;1.50;;;8.20;99.90;;;;;;5033233;28;20227;-57
2023/02/02 12:58:32;;;;;;;6.87;1.20;;;8.20;99.90;;;;;;5044605;28;20215;-58
2023/02/02 13:01:18;;;;;;;7.53;1.80;;;8.20;99.90;;;;;;5049219;28;20604;-57
2023/02/02 13:04:02;;;;;;;9.17;1.40;;;8.40;99.90;;;;;;5035730;28;20688;-58
2023/02/02 13:07:17;;;;;;;7.97;1.40;;;8.40;99.90;;;;;;5042523;28;20267;-57
2023/02/02 13:09:51;;;;;;;12.53;1.50;;;8.50;99.90;;;;;;5030904;28;20229;-58
2023/02/02 13:12:23;;;;;;;7.60;1.30;;;8.50;99.90;;;;;;5033273;28;20224;-58
2023/02/02 13:14:57;;;;;;;7.17;1.57;;;8.50;99.90;;;;;;5031334;28;20235;-58
2023/02/02 13:17:29;;;;;;;7.43;1.23;;;8.50;99.90;;;;;;5045982;28;20223;-58
2023/02/02 13:20:01;;;;;;;6.13;1.17;;;8.50;99.90;;;;;;5032354;28;20319;-58
2023/02/02 13:22:33;;;;;;;4.53;1.20;;;8.50;99.90;;;;;;5012986;28;20217;-58
2023/02/02 13:25:07;;;;;;;9.40;1.77;;;8.50;99.90;;;;;;5013444;28;20236;-58
2023/02/02 13:27:36;;;;;;;9.67;1.33;;;8.40;99.90;;;;;;5012910;28;20225;-57